createdAt,value
2019-06-26T00:00:26.571Z,101965.42
2019-06-26T00:03:00.188Z,101974.07
2019-06-26T00:05:30.523Z,101981.41
2019-06-26T00:07:58.528Z,101987.91
2019-06-26T00:10:27.881Z,101986.71
2019-06-26T00:12:57.945Z,101989.53
2019-06-26T00:15:26.129Z,101988.69
2019-06-26T00:17:54.297Z,101984.33
2019-06-26T00:20:22.508Z,101979.92
2019-06-26T00:22:50.660Z,101979.14
2019-06-26T00:25:18.965Z,101987.29
2019-06-26T00:27:47.209Z,101992.34
2019-06-26T00:30:15.509Z,101989.40
2019-06-26T00:32:43.649Z,101989.07
2019-06-26T00:35:11.819Z,101985.17
2019-06-26T00:37:39.979Z,101986.13
2019-06-26T00:40:08.335Z,101986.20
2019-06-26T00:42:36.534Z,101982.73
2019-06-26T00:45:04.848Z,101986.83
2019-06-26T00:47:33.001Z,101993.59
2019-06-26T00:50:01.193Z,101990.57
2019-06-26T00:52:29.345Z,101991.52
2019-06-26T00:54:57.557Z,101988.98
2019-06-26T00:57:25.822Z,101994.00
2019-06-26T00:59:53.971Z,102001.23
2019-06-26T01:02:22.142Z,102007.56
2019-06-26T01:04:50.321Z,102008.10
2019-06-26T01:07:18.489Z,102008.64
2019-06-26T01:09:46.637Z,102010.03
2019-06-26T01:12:14.834Z,102007.53
2019-06-26T01:14:42.975Z,102015.63
2019-06-26T01:17:11.128Z,102015.70
2019-06-26T01:19:39.300Z,102015.30
2019-06-26T01:22:07.453Z,102019.36
2019-06-26T01:24:35.606Z,102037.68
2019-06-26T01:27:03.835Z,102040.42
2019-06-26T01:29:32.769Z,102034.73
2019-06-26T01:32:01.326Z,102040.65
2019-06-26T01:34:30.286Z,102038.45
2019-06-26T01:36:58.525Z,102032.81
2019-06-26T01:39:26.679Z,102036.90
2019-06-26T01:41:54.834Z,102034.73
2019-06-26T01:44:23.025Z,102047.31
2019-06-26T01:46:51.180Z,102052.30
2019-06-26T01:49:19.330Z,102053.76
2019-06-26T01:51:47.533Z,102057.42
2019-06-26T01:54:15.674Z,102058.00
2019-06-26T01:56:43.822Z,102062.12
2019-06-26T01:59:12.023Z,102063.51
2019-06-26T02:01:40.194Z,102065.88
2019-06-26T02:04:08.346Z,102070.00
2019-06-26T02:06:36.544Z,102066.56
2019-06-26T02:09:05.447Z,102073.86
2019-06-26T02:11:33.606Z,102071.29
2019-06-26T02:14:01.793Z,102079.41
2019-06-26T02:16:32.914Z,102087.16
2019-06-26T02:19:01.070Z,102090.86
2019-06-26T02:21:29.552Z,102092.76
2019-06-26T02:23:57.807Z,102094.75
2019-06-26T02:26:25.959Z,102090.84
2019-06-26T02:28:54.136Z,102093.74
2019-06-26T02:31:22.407Z,102090.76
2019-06-26T02:33:50.571Z,102110.94
2019-06-26T02:36:18.736Z,102097.36
2019-06-26T02:38:46.932Z,102100.61
2019-06-26T02:41:15.084Z,102095.41
2019-06-26T02:43:43.244Z,102097.24
2019-06-26T02:46:12.128Z,102113.33
2019-06-26T02:48:40.284Z,102118.73
2019-06-26T02:51:08.421Z,102123.70
2019-06-26T02:53:36.642Z,102124.69
2019-06-26T02:56:04.801Z,102136.76
2019-06-26T02:58:32.985Z,102130.17
2019-06-26T03:01:01.180Z,102140.48
2019-06-26T03:03:29.319Z,102136.59
2019-06-26T03:05:57.480Z,102139.30
2019-06-26T03:08:25.680Z,102139.82
2019-06-26T03:10:53.822Z,102146.59
2019-06-26T03:13:22.009Z,102158.19
2019-06-26T03:15:50.753Z,102167.09
2019-06-26T03:18:19.142Z,102162.67
2019-06-26T03:20:50.301Z,102173.84
2019-06-26T03:23:18.481Z,102175.27
2019-06-26T03:25:46.699Z,102179.30
2019-06-26T03:28:14.862Z,102187.31
2019-06-26T03:30:43.021Z,102186.49
2019-06-26T03:33:11.222Z,102192.76
2019-06-26T03:35:40.810Z,102195.90
2019-06-26T03:38:09.236Z,102204.79
2019-06-26T03:40:37.472Z,102199.03
2019-06-26T03:43:05.621Z,102214.61
2019-06-26T03:45:33.753Z,102219.97
2019-06-26T03:48:01.938Z,102218.17
2019-06-26T03:50:30.030Z,102223.55
2019-06-26T03:52:58.237Z,102222.73
2019-06-26T03:55:26.388Z,102220.95
2019-06-26T03:57:54.523Z,102225.39
2019-06-26T04:00:38.440Z,102229.38
2019-06-26T04:03:06.668Z,102226.78
2019-06-26T04:05:34.828Z,102234.30
2019-06-26T04:08:03.037Z,102240.55
2019-06-26T04:10:31.185Z,102242.34
2019-06-26T04:12:59.290Z,102256.52
2019-06-26T04:15:40.802Z,102260.98
2019-06-26T04:17:57.333Z,102257.89
2019-06-26T04:20:25.465Z,102262.81
2019-06-26T04:22:53.587Z,102261.06
2019-06-26T04:25:21.733Z,102253.50
2019-06-26T04:27:49.952Z,102258.38
2019-06-26T04:30:18.440Z,102268.11
2019-06-26T04:32:46.570Z,102269.44
2019-06-26T04:35:15.516Z,102273.89
2019-06-26T04:37:43.633Z,102274.73
2019-06-26T04:40:11.973Z,102273.41
2019-06-26T04:42:40.213Z,102280.52
2019-06-26T04:45:08.904Z,102277.86
2019-06-26T04:47:37.064Z,102276.08
2019-06-26T04:50:06.971Z,102277.41
2019-06-26T04:52:35.135Z,102276.05
2019-06-26T04:55:03.371Z,102265.86
2019-06-26T04:57:31.549Z,102276.02
2019-06-26T04:59:59.683Z,102277.78
2019-06-26T05:02:27.832Z,102278.22
2019-06-26T05:04:56.027Z,102284.88
2019-06-26T05:07:24.155Z,102278.19
2019-06-26T05:09:52.278Z,102288.80
2019-06-26T05:12:20.446Z,102287.44
2019-06-26T05:14:48.603Z,102292.75
2019-06-26T05:17:16.721Z,102295.88
2019-06-26T05:19:44.893Z,102291.88
2019-06-26T05:22:13.031Z,102302.08
2019-06-26T05:24:41.247Z,102317.12
2019-06-26T05:27:09.370Z,102315.34
2019-06-26T05:29:37.503Z,102308.23
2019-06-26T05:32:05.688Z,102310.84
2019-06-26T05:34:33.854Z,102308.16
2019-06-26T05:37:01.967Z,102325.02
2019-06-26T05:39:30.137Z,102323.67
2019-06-26T05:41:58.292Z,102320.55
2019-06-26T05:44:26.494Z,102319.20
2019-06-26T05:46:54.681Z,102328.48
2019-06-26T05:49:22.852Z,102328.05
2019-06-26T05:51:50.988Z,102326.68
2019-06-26T05:54:19.189Z,102329.78
2019-06-26T05:56:48.040Z,102338.63
2019-06-26T05:59:16.184Z,102355.02
2019-06-26T06:01:44.397Z,102358.56
2019-06-26T06:04:12.531Z,102356.78
2019-06-26T06:06:42.302Z,102365.63
2019-06-26T06:09:10.557Z,102361.63
2019-06-26T06:11:38.777Z,102364.74
2019-06-26T06:14:06.913Z,102363.41
2019-06-26T06:16:46.792Z,102355.00
2019-06-26T06:19:04.957Z,102370.02
2019-06-26T06:21:33.116Z,102368.74
2019-06-26T06:24:01.311Z,102369.17
2019-06-26T06:26:29.438Z,102368.74
2019-06-26T06:28:57.565Z,102376.28
2019-06-26T06:31:25.746Z,102378.02
2019-06-26T06:33:53.878Z,102374.42
2019-06-26T06:36:22.045Z,102389.92
2019-06-26T06:38:50.275Z,102397.84
2019-06-26T06:41:18.391Z,102403.55
2019-06-26T06:43:46.563Z,102409.66
2019-06-26T06:46:14.771Z,102414.42
2019-06-26T06:48:43.593Z,102418.31
2019-06-26T06:51:11.774Z,102418.71
2019-06-26T06:53:39.939Z,102426.63
2019-06-26T06:56:08.089Z,102435.08
2019-06-26T06:58:36.239Z,102436.44
2019-06-26T07:01:04.418Z,102436.46
2019-06-26T07:03:32.732Z,102444.52
2019-06-26T07:06:00.866Z,102441.84
2019-06-26T07:08:29.041Z,102447.28
2019-06-26T07:10:57.200Z,102446.45
2019-06-26T07:13:25.345Z,102460.77
2019-06-26T07:15:53.548Z,102467.95
2019-06-26T07:18:21.700Z,102478.20
2019-06-26T07:20:49.922Z,102483.59
2019-06-26T07:23:18.131Z,102483.67
2019-06-26T07:25:46.277Z,102479.72
2019-06-26T07:28:14.564Z,102482.89
2019-06-26T07:30:42.787Z,102486.93
2019-06-26T07:33:10.944Z,102498.52
2019-06-26T07:35:39.081Z,102506.51
2019-06-26T07:38:07.244Z,102517.16
2019-06-26T07:40:35.436Z,102513.63
2019-06-26T07:43:03.571Z,102523.86
2019-06-26T07:45:31.750Z,102520.75
2019-06-26T07:47:59.905Z,102525.20
2019-06-26T07:50:28.037Z,102530.55
2019-06-26T07:52:56.214Z,102530.55
2019-06-26T07:55:24.361Z,102534.97
2019-06-26T07:57:52.529Z,102538.97
2019-06-26T08:00:20.738Z,102550.06
2019-06-26T08:02:48.880Z,102547.84
2019-06-26T08:05:17.028Z,102550.08
2019-06-26T08:07:45.213Z,102564.28
2019-06-26T08:10:14.436Z,102563.45
2019-06-26T08:12:42.582Z,102569.20
2019-06-26T08:15:10.764Z,102569.63
2019-06-26T08:17:38.896Z,102577.14
2019-06-26T08:20:07.643Z,102573.63
2019-06-26T08:22:35.830Z,102579.87
2019-06-26T08:25:04.357Z,102586.52
2019-06-26T08:27:32.506Z,102597.19
2019-06-26T08:30:00.699Z,102587.89
2019-06-26T08:32:28.933Z,102592.32
2019-06-26T08:34:57.055Z,102593.24
2019-06-26T08:37:25.267Z,102600.80
2019-06-26T08:39:53.467Z,102596.80
2019-06-26T08:42:21.586Z,102598.11
2019-06-26T08:44:49.725Z,102606.99
2019-06-26T08:47:17.929Z,102618.48
2019-06-26T08:49:46.088Z,102620.71
2019-06-26T08:52:14.918Z,102618.50
2019-06-26T08:54:43.185Z,102619.34
2019-06-26T08:57:11.328Z,102628.66
2019-06-26T08:59:39.457Z,102642.38
2019-06-26T09:02:07.628Z,102645.02
2019-06-26T09:04:35.758Z,102646.33
2019-06-26T09:07:03.873Z,102649.86
2019-06-26T09:09:32.031Z,102651.62
2019-06-26T09:12:00.195Z,102656.52
2019-06-26T09:14:28.321Z,102663.58
2019-06-26T09:16:56.474Z,102663.17
2019-06-26T09:19:25.042Z,102661.82
2019-06-26T09:21:55.257Z,102656.48
2019-06-26T09:24:23.370Z,102667.09
2019-06-26T09:26:51.532Z,102672.35
2019-06-26T09:29:22.800Z,102669.63
2019-06-26T09:31:49.610Z,102682.88
2019-06-26T09:34:17.768Z,102689.50
2019-06-26T09:36:45.917Z,102689.49
2019-06-26T09:39:14.047Z,102695.28
2019-06-26T09:41:42.278Z,102692.27
2019-06-26T09:44:10.424Z,102700.27
2019-06-26T09:46:38.570Z,102715.39
2019-06-26T09:49:06.738Z,102708.73
2019-06-26T09:51:34.890Z,102716.30
2019-06-26T09:54:03.340Z,102713.63
2019-06-26T09:56:31.616Z,102708.27
2019-06-26T09:58:59.766Z,102723.36
2019-06-26T10:01:27.934Z,102720.64
2019-06-26T10:03:56.140Z,102722.34
2019-06-26T10:06:24.329Z,102723.61
2019-06-26T10:08:54.428Z,102720.86
2019-06-26T10:11:22.399Z,102713.25
2019-06-26T10:13:50.523Z,102705.24
2019-06-26T10:16:18.676Z,102709.25
2019-06-26T10:18:46.859Z,102708.77
2019-06-26T10:21:14.980Z,102705.25
2019-06-26T10:23:43.162Z,102707.45
2019-06-26T10:26:11.354Z,102705.13
2019-06-26T10:28:39.491Z,102703.18
2019-06-26T10:31:07.634Z,102701.68
2019-06-26T10:33:35.800Z,102705.06
2019-06-26T10:36:03.991Z,102715.73
2019-06-26T10:38:32.166Z,102729.39
2019-06-26T10:41:00.363Z,102724.86
2019-06-26T10:43:28.504Z,102718.50
2019-06-26T10:45:56.639Z,102728.22
2019-06-26T10:48:24.820Z,102727.28
2019-06-26T10:50:58.550Z,102725.43
2019-06-26T10:53:22.907Z,102727.61
2019-06-26T10:55:51.109Z,102731.16
2019-06-26T10:58:19.287Z,102722.24
2019-06-26T11:00:47.421Z,102720.27
2019-06-26T11:03:15.632Z,102715.58
2019-06-26T11:05:43.768Z,102721.10
2019-06-26T11:08:11.908Z,102724.44
2019-06-26T11:10:40.125Z,102719.67
2019-06-26T11:13:08.274Z,102722.98
2019-06-26T11:15:36.497Z,102735.88
2019-06-26T11:18:05.499Z,102743.47
2019-06-26T11:20:33.647Z,102754.98
2019-06-26T11:23:03.019Z,102732.89
2019-06-26T11:25:31.166Z,102722.27
2019-06-26T11:27:59.324Z,102715.04
2019-06-26T11:30:27.568Z,102711.83
2019-06-26T11:32:55.750Z,102714.87
2019-06-26T11:35:23.882Z,102708.48
2019-06-26T11:37:52.050Z,102703.79
2019-06-26T11:40:24.385Z,102715.20
2019-06-26T11:43:00.574Z,102722.92
2019-06-26T11:45:34.947Z,102726.98
2019-06-26T11:48:03.484Z,102734.82
2019-06-26T11:50:31.688Z,102733.03
2019-06-26T11:52:59.985Z,102729.27
2019-06-26T11:55:28.103Z,102721.25
2019-06-26T11:57:58.672Z,102724.22
2019-06-26T12:00:26.879Z,102723.81
2019-06-26T12:02:55.012Z,102710.00
2019-06-26T12:05:23.110Z,102707.44
2019-06-26T12:07:51.482Z,102702.53
2019-06-26T12:10:20.950Z,102703.61
2019-06-26T12:12:49.116Z,102709.12
2019-06-26T12:15:19.279Z,102705.70
2019-06-26T12:17:46.490Z,102714.23
2019-06-26T12:20:19.126Z,102716.26
2019-06-26T12:22:43.866Z,102716.17
2019-06-26T12:25:12.090Z,102717.84
2019-06-26T12:27:40.279Z,102724.28
2019-06-26T12:30:09.367Z,102738.46
2019-06-26T12:32:42.163Z,102738.99
2019-06-26T12:35:08.187Z,102759.57
2019-06-26T12:37:38.003Z,102762.09
2019-06-26T12:40:18.453Z,102760.81
2019-06-26T12:42:46.650Z,102764.52
2019-06-26T12:45:15.167Z,102773.56
2019-06-26T12:47:43.402Z,102776.31
2019-06-26T12:50:12.266Z,102764.61
2019-06-26T12:52:40.659Z,102773.80
2019-06-26T12:55:09.009Z,102783.15
2019-06-26T12:57:37.150Z,102788.70
2019-06-26T13:00:06.741Z,102778.82
2019-06-26T13:02:34.932Z,102782.93
2019-06-26T13:05:04.026Z,102777.15
2019-06-26T13:07:32.560Z,102784.85
2019-06-26T13:10:07.476Z,102777.03
2019-06-26T13:12:35.924Z,102780.53
2019-06-26T13:15:04.285Z,102782.70
2019-06-26T13:17:35.506Z,102775.44
2019-06-26T13:20:04.180Z,102790.95
2019-06-26T13:22:34.383Z,102790.66
2019-06-26T13:25:04.144Z,102797.53
2019-06-26T13:27:32.276Z,102800.49
2019-06-26T13:30:00.796Z,102800.95
2019-06-26T13:32:31.226Z,102804.96
2019-06-26T13:35:01.168Z,102805.06
2019-06-26T13:37:31.817Z,102801.66
2019-06-26T13:39:59.979Z,102789.55
2019-06-26T13:42:28.112Z,102797.13
2019-06-26T13:44:56.306Z,102799.34
2019-06-26T13:47:27.012Z,102803.83
2019-06-26T13:49:55.156Z,102788.92
2019-06-26T13:52:23.311Z,102788.92
2019-06-26T13:54:51.438Z,102790.26
2019-06-26T13:57:19.611Z,102789.03
2019-06-26T13:59:47.742Z,102789.63
2019-06-26T14:02:19.612Z,102793.38
2019-06-26T14:04:45.850Z,102781.88
2019-06-26T14:07:14.053Z,102793.48
2019-06-26T14:09:42.175Z,102817.27
2019-06-26T14:12:12.604Z,102811.98
2019-06-26T14:14:56.291Z,102811.98
2019-06-26T14:17:10.715Z,102817.09
2019-06-26T14:19:38.929Z,102806.93
2019-06-26T14:22:07.187Z,102801.70
2019-06-26T14:24:35.348Z,102804.72
2019-06-26T14:27:03.525Z,102816.73
2019-06-26T14:29:31.684Z,102813.20
2019-06-26T14:32:01.121Z,102801.25
2019-06-26T14:34:29.781Z,102801.25
2019-06-26T14:36:58.080Z,102800.50
2019-06-26T14:39:26.322Z,102797.11
2019-06-26T14:41:54.461Z,102789.78
2019-06-26T14:44:23.192Z,102798.06
2019-06-26T14:46:51.343Z,102799.63
2019-06-26T14:49:19.503Z,102804.59
2019-06-26T14:51:48.118Z,102809.56
2019-06-26T14:54:16.374Z,102820.30
2019-06-26T14:56:44.521Z,102814.07
2019-06-26T14:59:12.759Z,102822.06
2019-06-26T15:01:40.961Z,102825.16
2019-06-26T15:04:09.119Z,102831.28
2019-06-26T15:06:37.272Z,102831.28
2019-06-26T15:09:06.160Z,102822.69
2019-06-26T15:11:34.286Z,102823.82
2019-06-26T15:14:02.586Z,102823.82
2019-06-26T15:16:30.740Z,102820.38
2019-06-26T15:18:58.859Z,102823.96
2019-06-26T15:21:27.026Z,102799.53
2019-06-26T15:23:55.205Z,102799.53
2019-06-26T15:26:23.339Z,102813.08
2019-06-26T15:28:51.502Z,102803.82
2019-06-26T15:31:19.651Z,102815.50
2019-06-26T15:33:47.805Z,102814.65
2019-06-26T15:36:16.007Z,102806.56
2019-06-26T15:38:44.180Z,102813.58
2019-06-26T15:41:12.319Z,102796.61
2019-06-26T15:43:40.672Z,102799.22
2019-06-26T15:46:08.867Z,102805.06
2019-06-26T15:48:37.037Z,102803.36
2019-06-26T15:51:05.179Z,102808.48
2019-06-26T15:53:33.340Z,102823.83
2019-06-26T15:56:01.497Z,102813.73
2019-06-26T15:58:29.691Z,102816.09
2019-06-26T16:00:57.853Z,102827.31
2019-06-26T16:03:25.994Z,102837.67
2019-06-26T16:05:54.231Z,102843.09
2019-06-26T16:08:22.420Z,102849.88
2019-06-26T16:10:50.550Z,102861.09
2019-06-26T16:13:18.785Z,102834.90
2019-06-26T16:15:47.051Z,102838.56
2019-06-26T16:18:15.197Z,102856.42
2019-06-26T16:20:43.380Z,102844.03
2019-06-26T16:23:11.508Z,102845.44
2019-06-26T16:25:39.662Z,102836.61
2019-06-26T16:28:07.845Z,102841.16
2019-06-26T16:30:35.961Z,102843.41
2019-06-26T16:33:04.143Z,102848.33
2019-06-26T16:35:32.294Z,102852.38
2019-06-26T16:38:00.446Z,102850.20
2019-06-26T16:40:28.666Z,102851.58
2019-06-26T16:42:56.807Z,102847.62
2019-06-26T16:45:24.939Z,102843.20
2019-06-26T16:47:53.185Z,102844.16
2019-06-26T16:50:21.409Z,102846.84
2019-06-26T16:52:50.309Z,102841.52
2019-06-26T16:55:18.764Z,102845.06
2019-06-26T16:57:46.948Z,102837.11
2019-06-26T17:00:15.200Z,102839.77
2019-06-26T17:02:43.344Z,102839.33
2019-06-26T17:05:12.445Z,102840.66
2019-06-26T17:07:40.622Z,102843.30
2019-06-26T17:10:09.310Z,102846.00
2019-06-26T17:12:37.492Z,102848.67
2019-06-26T17:15:05.726Z,102850.00
2019-06-26T17:17:33.882Z,102865.08
2019-06-26T17:20:02.046Z,102862.84
2019-06-26T17:22:31.426Z,102863.32
2019-06-26T17:24:59.713Z,102861.09
2019-06-26T17:27:27.897Z,102871.71
2019-06-26T17:29:56.075Z,102866.84
2019-06-26T17:32:24.253Z,102862.86
2019-06-26T17:34:52.442Z,102858.86
2019-06-26T17:37:20.568Z,102862.39
2019-06-26T17:39:48.696Z,102863.71
2019-06-26T17:42:17.035Z,102870.36
2019-06-26T17:44:45.195Z,102873.84
2019-06-26T17:47:13.335Z,102872.06
2019-06-26T17:49:41.516Z,102881.80
2019-06-26T17:52:09.766Z,102875.61
2019-06-26T17:54:37.988Z,102882.26
2019-06-26T17:57:06.202Z,102886.69
2019-06-26T17:59:37.397Z,102885.79
2019-06-26T18:02:05.554Z,102884.44
2019-06-26T18:04:33.753Z,102876.45
2019-06-26T18:07:01.990Z,102881.29
2019-06-26T18:09:30.127Z,102883.05
2019-06-26T18:11:58.282Z,102891.88
2019-06-26T18:14:26.444Z,102888.34
2019-06-26T18:16:54.640Z,102889.20
2019-06-26T18:19:22.868Z,102886.11
2019-06-26T18:21:51.037Z,102894.94
2019-06-26T18:24:19.279Z,102895.36
2019-06-26T18:26:47.461Z,102893.59
2019-06-26T18:29:15.599Z,102891.80
2019-06-26T18:31:43.758Z,102894.87
2019-06-26T18:34:11.953Z,102900.63
2019-06-26T18:36:40.108Z,102909.02
2019-06-26T18:39:08.601Z,102916.53
2019-06-26T18:41:37.303Z,102906.36
2019-06-26T18:44:05.471Z,102912.53
2019-06-26T18:46:33.686Z,102914.27
2019-06-26T18:49:01.893Z,102914.69
2019-06-26T18:51:30.083Z,102912.45
2019-06-26T18:54:01.020Z,102916.40
2019-06-26T18:56:28.188Z,102916.81
2019-06-26T18:58:56.345Z,102915.45
2019-06-26T19:01:24.544Z,102917.19
2019-06-26T19:03:52.699Z,102918.52
2019-06-26T19:06:20.860Z,102924.23
2019-06-26T19:08:49.075Z,102921.10
2019-06-26T19:11:17.207Z,102923.28
2019-06-26T19:13:45.368Z,102916.16
2019-06-26T19:16:13.551Z,102922.36
2019-06-26T19:18:41.683Z,102924.13
2019-06-26T19:21:09.998Z,102927.63
2019-06-26T19:23:40.024Z,102927.16
2019-06-26T19:26:08.175Z,102932.89
2019-06-26T19:28:38.399Z,102942.59
2019-06-26T19:31:06.588Z,102942.55
2019-06-26T19:33:34.743Z,102936.36
2019-06-26T19:36:02.973Z,102942.50
2019-06-26T19:38:31.193Z,102931.85
2019-06-26T19:40:59.289Z,102929.12
2019-06-26T19:43:27.447Z,102928.23
2019-06-26T19:45:55.677Z,102935.70
2019-06-26T19:48:23.819Z,102932.56
2019-06-26T19:50:52.002Z,102939.63
2019-06-26T19:53:20.154Z,102942.23
2019-06-26T19:55:48.465Z,102944.00
2019-06-26T19:58:16.605Z,102947.05
2019-06-26T20:00:44.992Z,102951.87
2019-06-26T20:03:13.231Z,102961.58
2019-06-26T20:05:41.400Z,102962.86
2019-06-26T20:08:09.563Z,102963.26
2019-06-26T20:10:37.718Z,102967.62
2019-06-26T20:13:06.023Z,102966.73
2019-06-26T20:15:34.238Z,102977.78
2019-06-26T20:18:04.332Z,102978.66
2019-06-26T20:20:32.229Z,102972.48
2019-06-26T20:23:00.388Z,102978.66
2019-06-26T20:25:28.530Z,102975.56
2019-06-26T20:27:57.395Z,102970.27
2019-06-26T20:30:28.777Z,102971.59
2019-06-26T20:32:57.030Z,102974.20
2019-06-26T20:35:25.147Z,102974.20
2019-06-26T20:37:53.291Z,102973.80
2019-06-26T20:40:21.437Z,102976.45
2019-06-26T20:42:49.601Z,102972.43
2019-06-26T20:45:17.730Z,102966.59
2019-06-26T20:47:45.881Z,102974.55
2019-06-26T20:50:14.203Z,102973.22
2019-06-26T20:52:42.345Z,102976.70
2019-06-26T20:55:10.585Z,102982.44
2019-06-26T20:57:38.807Z,102983.33
2019-06-26T21:00:07.421Z,102976.25
2019-06-26T21:02:35.591Z,102972.67
2019-06-26T21:05:03.767Z,102970.89
2019-06-26T21:07:31.943Z,102975.70
2019-06-26T21:10:00.148Z,102972.62
2019-06-26T21:12:28.262Z,102972.13
2019-06-26T21:14:56.431Z,102975.15
2019-06-26T21:17:25.748Z,102976.45
2019-06-26T21:19:54.180Z,102975.53
2019-06-26T21:22:22.362Z,102977.28
2019-06-26T21:24:50.541Z,102983.85
2019-06-26T21:27:19.255Z,102983.34
2019-06-26T21:29:47.423Z,102985.50
2019-06-26T21:32:15.565Z,102990.34
2019-06-26T21:34:43.734Z,102993.38
2019-06-26T21:37:11.860Z,102996.03
2019-06-26T21:39:39.993Z,102992.94
2019-06-26T21:42:08.167Z,102990.23
2019-06-26T21:44:36.334Z,102998.55
2019-06-26T21:47:04.477Z,102999.86
2019-06-26T21:49:32.601Z,102998.04
2019-06-26T21:52:00.786Z,102990.48
2019-06-26T21:54:28.967Z,103001.05
2019-06-26T21:56:57.100Z,103005.84
2019-06-26T21:59:27.388Z,102994.36
2019-06-26T22:02:25.699Z,103007.53
2019-06-26T22:04:25.351Z,102995.17
2019-06-26T22:06:54.958Z,102999.97
2019-06-26T22:09:24.626Z,102999.94
2019-06-26T22:11:52.757Z,103005.69
2019-06-26T22:14:21.119Z,103013.63
2019-06-26T22:16:49.393Z,103007.02
2019-06-26T22:19:17.579Z,103009.66
2019-06-26T22:21:45.758Z,103014.02
2019-06-26T22:24:16.387Z,103021.94
2019-06-26T22:26:44.751Z,103018.79
2019-06-26T22:29:13.095Z,103020.47
2019-06-26T22:31:41.296Z,103023.94
2019-06-26T22:34:12.528Z,103022.55
2019-06-26T22:36:51.393Z,103028.24
2019-06-26T22:39:22.345Z,103029.95
2019-06-26T22:41:53.616Z,103028.94
2019-06-26T22:44:21.838Z,103028.35
2019-06-26T22:46:52.106Z,103037.97
2019-06-26T22:49:20.292Z,103039.64
2019-06-26T22:51:49.583Z,103038.69
2019-06-26T22:54:19.872Z,103040.01
2019-06-26T22:56:49.575Z,103039.14
2019-06-26T22:59:17.695Z,103030.73
2019-06-26T23:01:48.042Z,103022.80
2019-06-26T23:04:18.772Z,103021.05
2019-06-26T23:06:48.261Z,103025.91
2019-06-26T23:09:21.272Z,103022.36
2019-06-26T23:11:45.902Z,103026.27
2019-06-26T23:14:14.138Z,103027.56
2019-06-26T23:16:42.322Z,103027.95
2019-06-26T23:19:14.818Z,103026.59
2019-06-26T23:21:41.690Z,103039.38
2019-06-26T23:24:09.825Z,103036.28
2019-06-26T23:26:37.938Z,103030.51
2019-06-26T23:29:06.118Z,103028.73
2019-06-26T23:31:34.257Z,103024.77
2019-06-26T23:34:09.894Z,103027.41
2019-06-26T23:36:36.863Z,103029.16
2019-06-26T23:39:05.246Z,103030.42
2019-06-26T23:41:33.372Z,103029.95
2019-06-26T23:44:01.494Z,103030.82
2019-06-26T23:46:29.676Z,103029.01
2019-06-26T23:48:57.890Z,103024.61
2019-06-26T23:51:26.048Z,103026.42
2019-06-26T23:53:54.230Z,103033.48
2019-06-26T23:56:22.344Z,103028.17
2019-06-26T23:58:50.528Z,103040.02
